Time;durP1;ratioP1;P1;durP2;ratioP2;P2;SDS_P1;SDS_P2;PMS_P1;PMS_P2;Temp;Humidity;BMP_temperature;BMP_pressure;BME280_temperature;BME280_humidity;BME280_pressure;Samples;Min_cycle;Max_cycle;Signal;HPM_P1;HPM_P2
2022/10/10 00:01:16;;;;;;;0.10;0.10;;;;;;;;;;6189344;23;20095;-95
2022/10/10 00:03:42;;;;;;;0.10;0.10;;;;;;;;;;6189322;23;20027;-94
2022/10/10 00:06:08;;;;;;;0.10;0.10;;;;;;;;;;6189714;23;20107;-94
2022/10/10 00:08:34;;;;;;;0.10;0.10;;;;;;;;;;6189520;23;20106;-94
2022/10/10 00:11:00;;;;;;;0.10;0.10;;;;;;;;;;6188801;23;20021;-94
2022/10/10 00:13:26;;;;;;;0.10;0.10;;;;;;;;;;6189270;23;20012;-95
2022/10/10 00:16:01;;;;;;;0.10;0.10;;;;;;;;;;6189434;23;20016;-93
2022/10/10 00:18:28;;;;;;;0.10;0.10;;;;;;;;;;6214272;23;20013;-93
2022/10/10 00:20:54;;;;;;;0.10;0.10;;;;;;;;;;6190595;23;20016;-95
2022/10/10 00:23:20;;;;;;;0.10;0.10;;;;;;;;;;6190733;23;20012;-94
2022/10/10 00:25:46;;;;;;;0.10;0.10;;;;;;;;;;6191087;23;20023;-94
2022/10/10 00:28:12;;;;;;;0.10;0.10;;;;;;;;;;6191817;23;20017;-93
2022/10/10 00:30:38;;;;;;;0.10;0.10;;;;;;;;;;6191452;23;20044;-94
2022/10/10 00:33:04;;;;;;;0.10;0.10;;;;;;;;;;6190784;23;20032;-94
2022/10/10 00:35:30;;;;;;;0.10;0.10;;;;;;;;;;6190925;23;20020;-94
2022/10/10 00:37:56;;;;;;;0.10;0.10;;;;;;;;;;6191518;23;20374;-92
2022/10/10 00:40:22;;;;;;;0.10;0.10;;;;;;;;;;6190711;23;20334;-92
2022/10/10 00:42:48;;;;;;;0.10;0.10;;;;;;;;;;6190387;23;20020;-93
2022/10/10 00:45:23;;;;;;;0.10;0.10;;;;;;;;;;6190501;23;20012;-91
2022/10/10 00:47:50;;;;;;;0.10;0.10;;;;;;;;;;6214927;23;20095;-92
2022/10/10 00:50:22;;;;;;;0.10;0.10;;;;;;;;;;6190320;23;20012;-92
2022/10/10 00:52:48;;;;;;;0.10;0.10;;;;;;;;;;6215130;23;20492;-92
2022/10/10 00:55:14;;;;;;;0.10;0.10;;;;;;;;;;6190782;23;20040;-92
2022/10/10 00:57:40;;;;;;;0.10;0.10;;;;;;;;;;6190635;23;20047;-92
2022/10/10 01:00:18;;;;;;;0.10;0.10;;;;;;;;;;6189558;23;20016;-94
2022/10/10 01:02:44;;;;;;;0.10;0.10;;;;;;;;;;6215271;23;20012;-95
2022/10/10 01:05:10;;;;;;;0.05;0.05;;;;;;;;;;6191198;23;20016;-93
2022/10/10 01:07:36;;;;;;;0.10;0.10;;;;;;;;;;6190281;23;20020;-93
2022/10/10 01:10:04;;;;;;;0.10;0.10;;;;;;;;;;6190876;23;20081;-93
2022/10/10 01:12:43;;;;;;;0.10;0.10;;;;;;;;;;6189873;23;20020;-94
2022/10/10 01:15:21;;;;;;;0.10;0.10;;;;;;;;;;6215489;23;20323;-94
2022/10/10 01:17:50;;;;;;;0.10;0.10;;;;;;;;;;6190537;23;20023;-93
2022/10/10 01:20:28;;;;;;;0.10;0.10;;;;;;;;;;6190740;23;20009;-93
2022/10/10 01:23:05;;;;;;;0.10;0.10;;;;;;;;;;6190687;23;20091;-94
2022/10/10 01:25:36;;;;;;;0.10;0.10;;;;;;;;;;6190713;23;20016;-94
2022/10/10 01:28:02;;;;;;;0.10;0.10;;;;;;;;;;6190568;23;20016;-93
2022/10/10 01:30:28;;;;;;;0.10;0.10;;;;;;;;;;6190026;23;20013;-94
2022/10/10 01:32:57;;;;;;;0.10;0.10;;;;;;;;;;6190276;23;20017;-93
2022/10/10 01:35:27;;;;;;;0.10;0.10;;;;;;;;;;6214798;23;20477;-93
2022/10/10 01:37:54;;;;;;;0.15;0.15;;;;;;;;;;6214556;23;20095;-94
2022/10/10 01:40:28;;;;;;;0.28;0.28;;;;;;;;;;6190402;23;20009;-94
2022/10/10 01:42:55;;;;;;;0.10;0.10;;;;;;;;;;6190546;23;20119;-93
2022/10/10 01:45:21;;;;;;;0.10;0.10;;;;;;;;;;6190176;23;20091;-94
2022/10/10 01:47:47;;;;;;;0.10;0.10;;;;;;;;;;6190818;23;20095;-94
2022/10/10 01:50:15;;;;;;;0.10;0.10;;;;;;;;;;6190147;23;20016;-93
2022/10/10 01:52:56;;;;;;;0.10;0.10;;;;;;;;;;6190253;23;20020;-93
2022/10/10 01:55:27;;;;;;;0.10;0.10;;;;;;;;;;6215025;23;20098;-93
2022/10/10 01:57:59;;;;;;;0.10;0.10;;;;;;;;;;6190027;23;20020;-95
2022/10/10 02:00:25;;;;;;;0.10;0.10;;;;;;;;;;6214701;23;20008;-95
2022/10/10 02:02:57;;;;;;;0.10;0.10;;;;;;;;;;6190048;23;20369;-94
2022/10/10 02:05:35;;;;;;;0.10;0.10;;;;;;;;;;6214878;23;20055;-94
2022/10/10 02:08:11;;;;;;;0.10;0.10;;;;;;;;;;6190119;23;20099;-94
2022/10/10 02:10:43;;;;;;;0.10;0.10;;;;;;;;;;6189678;23;20017;-93
2022/10/10 02:13:09;;;;;;;0.10;0.10;;;;;;;;;;6189766;23;20012;-93
2022/10/10 02:15:40;;;;;;;0.10;0.10;;;;;;;;;;6191728;23;20020;-93
2022/10/10 02:18:06;;;;;;;0.10;0.10;;;;;;;;;;6192465;23;20064;-94
2022/10/10 02:20:33;;;;;;;0.10;0.10;;;;;;;;;;6214798;23;20016;-95
2022/10/10 02:22:58;;;;;;;0.10;0.10;;;;;;;;;;6190352;23;20417;-88
2022/10/10 02:28:53;;;;;;;0.10;0.10;;;;;;;;;;6215109;23;20032;-94
2022/10/10 02:31:21;;;;;;;0.10;0.10;;;;;;;;;;6190070;23;20016;-94
2022/10/10 02:33:49;;;;;;;0.10;0.10;;;;;;;;;;6190340;23;20067;-94
2022/10/10 02:36:15;;;;;;;0.20;0.20;;;;;;;;;;6190079;23;20018;-94
2022/10/10 03:29:04;;;;;;;0.10;0.10;;;;;;;;;;6267165;22;20024;-93
2022/10/10 03:31:30;;;;;;;0.10;0.10;;;;;;;;;;6189125;23;20442;-93
2022/10/10 03:33:56;;;;;;;0.10;0.10;;;;;;;;;;6164169;23;20377;-93
2022/10/10 03:36:22;;;;;;;0.10;0.10;;;;;;;;;;6164816;23;20013;-92
2022/10/10 03:38:48;;;;;;;0.10;0.10;;;;;;;;;;6165076;23;20015;-93
2022/10/10 03:41:14;;;;;;;0.10;0.10;;;;;;;;;;6164395;23;20016;-94
2022/10/10 03:43:40;;;;;;;0.10;0.10;;;;;;;;;;6164814;23;20016;-92
2022/10/10 03:46:06;;;;;;;0.10;0.10;;;;;;;;;;6163893;23;20103;-93
2022/10/10 03:48:32;;;;;;;0.10;0.10;;;;;;;;;;6164199;23;20031;-93
2022/10/10 03:50:58;;;;;;;0.20;0.20;;;;;;;;;;6164251;23;20021;-93
2022/10/10 03:53:24;;;;;;;0.10;0.10;;;;;;;;;;6164242;23;20013;-95
2022/10/10 03:55:52;;;;;;;0.20;0.20;;;;;;;;;;6164189;23;20015;-93
2022/10/10 03:58:18;;;;;;;0.10;0.10;;;;;;;;;;6164624;23;20015;-93
2022/10/10 04:00:44;;;;;;;0.20;0.20;;;;;;;;;;6164380;23;20193;-94
2022/10/10 04:03:10;;;;;;;0.52;0.25;;;;;;;;;;6164317;23;20013;-95
2022/10/10 04:05:36;;;;;;;0.10;0.10;;;;;;;;;;6164545;23;20461;-94
2022/10/10 04:08:02;;;;;;;0.20;0.20;;;;;;;;;;6164441;23;20028;-95
2022/10/10 04:10:28;;;;;;;0.10;0.10;;;;;;;;;;6164421;23;20020;-96
2022/10/10 04:12:54;;;;;;;0.10;0.10;;;;;;;;;;6164704;23;20434;-95
2022/10/10 04:15:20;;;;;;;0.10;0.10;;;;;;;;;;6164424;23;20456;-94
2022/10/10 04:17:46;;;;;;;0.10;0.10;;;;;;;;;;6164366;23;20016;-95
2022/10/10 04:20:13;;;;;;;0.17;0.17;;;;;;;;;;6164400;23;20013;-96
2022/10/10 04:22:41;;;;;;;0.10;0.10;;;;;;;;;;6164323;23;20017;-95
2022/10/10 04:25:10;;;;;;;0.10;0.10;;;;;;;;;;6166085;23;20012;-94
2022/10/10 04:27:36;;;;;;;0.10;0.10;;;;;;;;;;6163793;23;20016;-94
2022/10/10 04:30:03;;;;;;;0.10;0.10;;;;;;;;;;6164297;23;20021;-94
2022/10/10 04:32:29;;;;;;;0.10;0.10;;;;;;;;;;6163937;23;20020;-94
2022/10/10 04:34:55;;;;;;;0.10;0.10;;;;;;;;;;6164293;23;20059;-94
2022/10/10 04:37:21;;;;;;;0.10;0.10;;;;;;;;;;6164212;23;20020;-95
2022/10/10 04:39:47;;;;;;;0.20;0.20;;;;;;;;;;6164517;23;20008;-95
2022/10/10 04:42:13;;;;;;;0.20;0.20;;;;;;;;;;6164039;23;20382;-95
2022/10/10 04:44:39;;;;;;;0.10;0.10;;;;;;;;;;6164394;23;20016;-94
2022/10/10 04:47:06;;;;;;;0.10;0.10;;;;;;;;;;6163933;23;20092;-94
2022/10/10 04:49:32;;;;;;;0.10;0.10;;;;;;;;;;6164366;23;20442;-95
2022/10/10 04:51:58;;;;;;;0.10;0.10;;;;;;;;;;6164152;23;20091;-94
2022/10/10 04:54:24;;;;;;;0.20;0.20;;;;;;;;;;6164912;23;20016;-93
2022/10/10 04:56:50;;;;;;;0.10;0.10;;;;;;;;;;6164035;23;20013;-95
2022/10/10 04:59:16;;;;;;;0.10;0.10;;;;;;;;;;6164067;23;20013;-95
2022/10/10 05:01:42;;;;;;;0.10;0.10;;;;;;;;;;6164245;23;20070;-95
2022/10/10 05:04:08;;;;;;;0.10;0.10;;;;;;;;;;6163970;23;20055;-95
2022/10/10 05:06:35;;;;;;;0.10;0.10;;;;;;;;;;6167136;23;20017;-96
2022/10/10 05:09:05;;;;;;;0.10;0.10;;;;;;;;;;6192101;23;20407;-96
2022/10/10 05:11:33;;;;;;;0.05;0.05;;;;;;;;;;6165767;23;20012;-96
2022/10/10 05:14:03;;;;;;;0.10;0.10;;;;;;;;;;6166953;23;20012;-96
2022/10/10 05:16:29;;;;;;;0.10;0.10;;;;;;;;;;6166485;23;20018;-95
2022/10/10 05:19:00;;;;;;;0.10;0.10;;;;;;;;;;6191966;23;20051;-96
2022/10/10 05:21:26;;;;;;;0.15;0.15;;;;;;;;;;6166656;23;20020;-96
2022/10/10 05:24:01;;;;;;;0.10;0.10;;;;;;;;;;6166834;23;20016;-96
2022/10/10 05:26:42;;;;;;;0.10;0.10;;;;;;;;;;6168074;23;20500;-96
2022/10/10 05:32:03;;;;;;;0.10;0.10;;;;;;;;;;6166058;23;20021;-95
2022/10/10 05:34:29;;;;;;;0.10;0.10;;;;;;;;;;6166487;23;20048;-94
2022/10/10 05:37:04;;;;;;;0.10;0.10;;;;;;;;;;6166411;23;20024;-96
2022/10/10 05:39:39;;;;;;;0.10;0.10;;;;;;;;;;6168932;23;20447;-95
2022/10/10 05:42:16;;;;;;;;;;;;;;;;;;;;;
2022/10/10 05:45:01;;;;;;;0.10;0.10;;;;;;;;;;6218665;23;20016;-95
2022/10/10 05:47:41;;;;;;;0.10;0.10;;;;;;;;;;6168328;23;20062;-96
2022/10/10 05:50:14;;;;;;;0.13;0.13;;;;;;;;;;6172596;23;20019;-95
2022/10/10 05:52:40;;;;;;;0.17;0.17;;;;;;;;;;6168960;23;20038;-95
2022/10/10 05:55:46;;;;;;;0.10;0.10;;;;;;;;;;6167714;23;20012;-92
2022/10/10 05:58:12;;;;;;;0.10;0.10;;;;;;;;;;6193689;23;20027;-95
2022/10/10 06:06:06;;;;;;;0.10;0.10;;;;;;;;;;6272726;22;20036;-93
2022/10/10 06:08:32;;;;;;;0.10;0.10;;;;;;;;;;6223105;23;20016;-94
2022/10/10 06:11:02;;;;;;;0.10;0.10;;;;;;;;;;6190513;23;20013;-94
2022/10/10 06:13:30;;;;;;;0.10;0.10;;;;;;;;;;6190575;23;20020;-96
2022/10/10 06:15:56;;;;;;;0.10;0.10;;;;;;;;;;6191868;23;20019;-94
2022/10/10 06:18:22;;;;;;;0.10;0.10;;;;;;;;;;6189834;23;20009;-95
2022/10/10 06:20:49;;;;;;;0.10;0.10;;;;;;;;;;6190155;23;20012;-94
2022/10/10 06:23:15;;;;;;;0.10;0.10;;;;;;;;;;6191388;23;20008;-94
2022/10/10 06:25:41;;;;;;;0.10;0.10;;;;;;;;;;6192540;23;20012;-95
2022/10/10 06:28:07;;;;;;;0.10;0.10;;;;;;;;;;6193167;23;20311;-95
2022/10/10 06:30:33;;;;;;;0.10;0.10;;;;;;;;;;6194253;23;20060;-96
2022/10/10 06:32:59;;;;;;;0.10;0.10;;;;;;;;;;6222445;23;20032;-95
2022/10/10 06:35:25;;;;;;;0.10;0.10;;;;;;;;;;6197604;23;20013;-96
2022/10/10 06:51:52;;;;;;;0.22;0.22;;;;;;;;;;6272889;22;20024;-95
2022/10/10 06:54:22;;;;;;;0.10;0.10;;;;;;;;;;6222646;22;20015;-91
2022/10/10 06:56:57;;;;;;;0.10;0.10;;;;;;;;;;6246678;22;20012;-95
2022/10/10 06:59:25;;;;;;;0.10;0.10;;;;;;;;;;6220025;22;20020;-96
2022/10/10 07:02:01;;;;;;;0.10;0.10;;;;;;;;;;6216775;23;20103;-95
2022/10/10 07:04:48;;;;;;;0.10;0.10;;;;;;;;;;6228162;23;20074;-96
2022/10/10 07:24:32;;;;;;;0.10;0.10;;;;;;;;;;6274682;22;20024;-92
2022/10/10 07:27:07;;;;;;;0.10;0.10;;;;;;;;;;6199794;23;20027;-96
2022/10/10 07:29:33;;;;;;;0.10;0.10;;;;;;;;;;6219618;23;20090;-94
2022/10/10 07:31:59;;;;;;;0.13;0.13;;;;;;;;;;6190050;23;20020;-95
2022/10/10 07:37:11;;;;;;;0.20;0.20;;;;;;;;;;6258772;22;20107;-95
2022/10/10 07:39:43;;;;;;;0.10;0.10;;;;;;;;;;6195363;23;20386;-93
2022/10/10 07:42:12;;;;;;;0.10;0.10;;;;;;;;;;6218278;23;20422;-92
2022/10/10 07:44:39;;;;;;;0.20;0.20;;;;;;;;;;6194532;23;20307;-93
2022/10/10 07:47:05;;;;;;;0.17;0.17;;;;;;;;;;6192930;23;20430;-92
2022/10/10 07:49:31;;;;;;;0.10;0.10;;;;;;;;;;6193114;23;20012;-92
2022/10/10 07:51:57;;;;;;;0.10;0.10;;;;;;;;;;6217922;23;20138;-92
2022/10/10 07:54:23;;;;;;;0.10;0.10;;;;;;;;;;6192901;23;20039;-92
2022/10/10 07:56:50;;;;;;;0.10;0.10;;;;;;;;;;6193458;23;20047;-92
2022/10/10 07:59:16;;;;;;;0.10;0.10;;;;;;;;;;6193754;23;20012;-93
2022/10/10 08:01:42;;;;;;;0.10;0.10;;;;;;;;;;6193137;23;20030;-92
2022/10/10 08:04:18;;;;;;;0.10;0.10;;;;;;;;;;6220837;23;20012;-94
2022/10/10 08:06:44;;;;;;;0.10;0.10;;;;;;;;;;6193641;23;20333;-94
2022/10/10 08:09:10;;;;;;;0.10;0.10;;;;;;;;;;6193066;23;20055;-93
2022/10/10 08:11:36;;;;;;;0.10;0.10;;;;;;;;;;6193505;22;20462;-91
2022/10/10 08:14:03;;;;;;;0.10;0.10;;;;;;;;;;6188542;23;20203;-93
2022/10/10 08:16:29;;;;;;;0.10;0.10;;;;;;;;;;6188164;23;20071;-93
2022/10/10 08:18:55;;;;;;;0.10;0.10;;;;;;;;;;6188098;23;20008;-92
2022/10/10 08:21:21;;;;;;;0.10;0.10;;;;;;;;;;6174773;23;20075;-92
2022/10/10 08:23:48;;;;;;;0.10;0.10;;;;;;;;;;6158187;23;20335;-93
2022/10/10 08:26:14;;;;;;;0.10;0.10;;;;;;;;;;6135157;23;20021;-93
2022/10/10 08:28:40;;;;;;;0.17;0.17;;;;;;;;;;6133912;23;20013;-93
2022/10/10 08:31:08;;;;;;;0.10;0.10;;;;;;;;;;6135503;23;20104;-90
2022/10/10 08:33:35;;;;;;;0.60;0.20;;;;;;;;;;6158195;23;20493;-92
2022/10/10 08:36:05;;;;;;;0.20;0.20;;;;;;;;;;6157914;23;20059;-91
2022/10/10 08:38:31;;;;;;;0.20;0.20;;;;;;;;;;6134103;23;20009;-92
2022/10/10 08:40:57;;;;;;;0.10;0.10;;;;;;;;;;6148752;22;20023;-94
2022/10/10 08:43:26;;;;;;;0.10;0.10;;;;;;;;;;6195394;23;20074;-94
2022/10/10 08:45:53;;;;;;;0.10;0.10;;;;;;;;;;6245140;23;20020;-93
2022/10/10 08:48:25;;;;;;;0.20;0.20;;;;;;;;;;6195792;23;20062;-94
2022/10/10 08:50:57;;;;;;;0.20;0.20;;;;;;;;;;6216523;23;20016;-94
2022/10/10 08:53:45;;;;;;;0.10;0.10;;;;;;;;;;6218085;23;20017;-93
2022/10/10 08:57:08;;;;;;;0.10;0.10;;;;;;;;;;6169559;23;20027;-94
2022/10/10 08:59:35;;;;;;;0.20;0.20;;;;;;;;;;6193512;23;20016;-94
2022/10/10 09:02:31;;;;;;;0.40;0.40;;;;;;;;;;6170063;23;20016;-95
2022/10/10 09:04:57;;;;;;;0.10;0.10;;;;;;;;;;6217300;23;20016;-95
2022/10/10 09:07:26;;;;;;;0.10;0.10;;;;;;;;;;6168774;23;20019;-94
2022/10/10 09:09:55;;;;;;;0.10;0.10;;;;;;;;;;6168870;23;20056;-95
2022/10/10 09:15:56;;;;;;;0.20;0.20;;;;;;;;;;6218653;23;20327;-93
2022/10/10 09:18:42;;;;;;;0.10;0.10;;;;;;;;;;6216019;23;20023;-93
2022/10/10 09:21:16;;;;;;;0.20;0.20;;;;;;;;;;6217407;23;20008;-92
2022/10/10 09:24:05;;;;;;;0.10;0.10;;;;;;;;;;6168446;23;20108;-93
2022/10/10 09:26:38;;;;;;;0.10;0.10;;;;;;;;;;6203632;23;20019;-93
2022/10/10 09:29:24;;;;;;;0.10;0.10;;;;;;;;;;6214911;23;20023;-93
2022/10/10 09:32:40;;;;;;;0.10;0.10;;;;;;;;;;6162975;23;20013;-96
2022/10/10 09:35:49;;;;;;;0.10;0.10;;;;;;;;;;6158280;23;20415;-93
2022/10/10 09:38:35;;;;;;;0.10;0.10;;;;;;;;;;6133257;23;20009;-91
2022/10/10 09:41:05;;;;;;;0.10;0.10;;;;;;;;;;6132396;23;20009;-92
2022/10/10 09:43:33;;;;;;;0.20;0.20;;;;;;;;;;6134081;23;20036;-93
2022/10/10 09:46:00;;;;;;;0.15;0.15;;;;;;;;;;6158886;23;20095;-93
2022/10/10 09:48:36;;;;;;;0.10;0.10;;;;;;;;;;6132999;23;20092;-92
2022/10/10 09:51:02;;;;;;;0.10;0.10;;;;;;;;;;6133308;23;20049;-93
2022/10/10 09:53:28;;;;;;;0.20;0.20;;;;;;;;;;6135142;23;20032;-95
2022/10/10 09:56:09;;;;;;;0.50;0.50;;;;;;;;;;6134013;23;20020;-93
2022/10/10 09:58:37;;;;;;;0.10;0.10;;;;;;;;;;6134577;23;20427;-95
2022/10/10 10:08:51;;;;;;;0.20;0.20;;;;;;;;;;6247412;22;20028;-91
2022/10/10 10:11:27;;;;;;;0.28;0.28;;;;;;;;;;6219847;23;20027;-91
2022/10/10 10:14:26;;;;;;;;;;;;;;;;;;;;;
2022/10/10 10:25:34;;;;;;;0.10;0.10;;;;;;;;;;6247859;23;20032;-96
2022/10/10 10:28:23;;;;;;;0.10;0.10;;;;;;;;;;6220247;23;20012;-94
2022/10/10 10:30:49;;;;;;;0.13;0.13;;;;;;;;;;6247511;22;20019;-94
2022/10/10 10:33:31;;;;;;;0.10;0.10;;;;;;;;;;6195011;23;20027;-96
2022/10/10 10:36:10;;;;;;;0.20;0.20;;;;;;;;;;6219122;23;20152;-95
2022/10/10 10:38:55;;;;;;;0.10;0.10;;;;;;;;;;6219310;23;20437;-95
2022/10/10 10:41:29;;;;;;;0.10;0.10;;;;;;;;;;6218901;23;20016;-95
2022/10/10 10:44:01;;;;;;;0.20;0.20;;;;;;;;;;6194510;23;20012;-94
2022/10/10 10:46:28;;;;;;;;;;;;;;;;;;6220117;23;20020;-94
2022/10/10 10:49:13;;;;;;;0.10;0.10;;;;;;;;;;6222004;23;19915;-96
2022/10/10 10:52:06;;;;;;;0.10;0.10;;;;;;;;;;6246622;23;20012;-96
2022/10/10 11:56:12;;;;;;;0.10;0.10;;;;;;;;;;6242828;22;20028;-96
2022/10/10 11:58:58;;;;;;;0.38;0.38;;;;;;;;;;6197465;23;20016;-93
2022/10/10 12:01:26;;;;;;;0.10;0.10;;;;;;;;;;6215959;22;20008;-90
2022/10/10 12:03:53;;;;;;;0.10;0.10;;;;;;;;;;6193997;23;20102;-90
2022/10/10 12:06:24;;;;;;;0.10;0.10;;;;;;;;;;6192292;23;20437;-92
2022/10/10 12:08:56;;;;;;;0.20;0.20;;;;;;;;;;6219233;23;20027;-91
2022/10/10 12:11:25;;;;;;;0.10;0.10;;;;;;;;;;6218084;23;20405;-92
2022/10/10 12:13:55;;;;;;;0.10;0.10;;;;;;;;;;6218799;23;20057;-93
2022/10/10 12:16:22;;;;;;;0.10;0.10;;;;;;;;;;6219866;23;20015;-92
2022/10/10 12:19:01;;;;;;;0.10;0.10;;;;;;;;;;6196755;23;20015;-92
2022/10/10 12:21:28;;;;;;;0.10;0.10;;;;;;;;;;6195263;23;20016;-90
2022/10/10 12:24:04;;;;;;;0.10;0.10;;;;;;;;;;6194991;23;20099;-91
2022/10/10 12:26:50;;;;;;;0.10;0.10;;;;;;;;;;6194714;23;20016;-92
2022/10/10 12:29:16;;;;;;;0.20;0.20;;;;;;;;;;6204417;23;20023;-92
2022/10/10 12:31:42;;;;;;;0.10;0.10;;;;;;;;;;6194490;23;20016;-91
2022/10/10 12:34:41;;;;;;;0.10;0.10;;;;;;;;;;6194809;23;20016;-93
2022/10/10 12:37:11;;;;;;;0.10;0.10;;;;;;;;;;6245484;23;20091;-91
2022/10/10 12:39:38;;;;;;;0.10;0.10;;;;;;;;;;6195377;23;20370;-92
2022/10/10 12:42:23;;;;;;;3.03;0.60;;;;;;;;;;6195026;23;20019;-91
2022/10/10 12:44:52;;;;;;;0.10;0.10;;;;;;;;;;6196807;23;20394;-91
2022/10/10 12:47:24;;;;;;;0.13;0.13;;;;;;;;;;6195267;23;20446;-90
2022/10/10 12:49:54;;;;;;;0.10;0.10;;;;;;;;;;6245114;23;20012;-92
2022/10/10 12:52:21;;;;;;;0.10;0.10;;;;;;;;;;6194483;23;20023;-91
2022/10/10 12:54:47;;;;;;;0.10;0.10;;;;;;;;;;6194481;23;20058;-92
2022/10/10 12:57:32;;;;;;;0.10;0.10;;;;;;;;;;6220943;23;20008;-92
2022/10/10 13:00:20;;;;;;;0.30;0.20;;;;;;;;;;6195118;23;20363;-94
2022/10/10 13:02:48;;;;;;;0.10;0.10;;;;;;;;;;6205223;23;20129;-91
2022/10/10 13:05:14;;;;;;;4.70;0.35;;;;;;;;;;6194012;23;20105;-91
2022/10/10 13:07:41;;;;;;;0.10;0.10;;;;;;;;;;6220100;23;20012;-90
2022/10/10 13:10:08;;;;;;;0.10;0.10;;;;;;;;;;6219848;23;20066;-90
2022/10/10 13:12:34;;;;;;;0.10;0.10;;;;;;;;;;6193977;23;20016;-91
2022/10/10 13:15:00;;;;;;;0.10;0.10;;;;;;;;;;6194125;23;20091;-90
2022/10/10 13:17:26;;;;;;;0.10;0.10;;;;;;;;;;6194143;23;20066;-92
2022/10/10 13:19:52;;;;;;;0.10;0.10;;;;;;;;;;6218919;23;20445;-90
2022/10/10 13:22:18;;;;;;;0.10;0.10;;;;;;;;;;6193645;23;20334;-91
2022/10/10 13:24:45;;;;;;;0.10;0.10;;;;;;;;;;6194052;23;20012;-90
2022/10/10 13:27:22;;;;;;;0.10;0.10;;;;;;;;;;6193701;23;20062;-91
2022/10/10 13:29:48;;;;;;;0.10;0.10;;;;;;;;;;6244111;23;20508;-90
2022/10/10 13:32:15;;;;;;;0.10;0.10;;;;;;;;;;6193768;23;20012;-89
2022/10/10 13:34:42;;;;;;;0.10;0.10;;;;;;;;;;6194409;23;20051;-89
2022/10/10 13:37:11;;;;;;;0.10;0.10;;;;;;;;;;6219430;23;20023;-91
2022/10/10 13:39:37;;;;;;;0.10;0.10;;;;;;;;;;6194111;23;20377;-90
2022/10/10 13:42:04;;;;;;;0.10;0.10;;;;;;;;;;6218778;23;20323;-90
2022/10/10 13:44:46;;;;;;;0.10;0.10;;;;;;;;;;6219739;23;20094;-89
2022/10/10 13:47:32;;;;;;;0.10;0.10;;;;;;;;;;6220076;23;20050;-92
2022/10/10 13:50:14;;;;;;;;;;;;;;;;;;6248370;23;20016;-96
2022/10/10 13:52:44;;;;;;;0.10;0.10;;;;;;;;;;6218944;23;19920;-93
2022/10/10 13:55:25;;;;;;;0.10;0.10;;;;;;;;;;6245227;23;20012;-93
2022/10/10 13:57:52;;;;;;;0.28;0.28;;;;;;;;;;6195312;23;20012;-92
2022/10/10 14:00:20;;;;;;;0.10;0.10;;;;;;;;;;6193728;23;20091;-92
2022/10/10 14:02:47;;;;;;;0.10;0.10;;;;;;;;;;6216297;23;20024;-91
2022/10/10 14:05:15;;;;;;;0.15;0.15;;;;;;;;;;6218598;23;20337;-92
2022/10/10 14:07:46;;;;;;;0.10;0.10;;;;;;;;;;6193108;23;20081;-91
2022/10/10 14:10:13;;;;;;;0.15;0.15;;;;;;;;;;6193587;23;20016;-89
2022/10/10 14:12:44;;;;;;;0.10;0.10;;;;;;;;;;6218905;23;20008;-92
2022/10/10 14:15:28;;;;;;;0.20;0.20;;;;;;;;;;6194277;23;20071;-90
2022/10/10 14:17:55;;;;;;;0.10;0.10;;;;;;;;;;6218558;23;20012;-90
2022/10/10 14:20:22;;;;;;;0.25;0.25;;;;;;;;;;6218476;22;20012;-90
2022/10/10 14:22:48;;;;;;;0.10;0.10;;;;;;;;;;6207689;23;20023;-91
2022/10/10 14:25:15;;;;;;;0.10;0.10;;;;;;;;;;6213348;23;20091;-90
2022/10/10 14:27:44;;;;;;;0.10;0.10;;;;;;;;;;6214804;23;20031;-92
2022/10/10 14:30:14;;;;;;;0.10;0.10;;;;;;;;;;6238229;23;20004;-92
2022/10/10 14:32:41;;;;;;;0.20;0.20;;;;;;;;;;6222009;22;20022;-91
2022/10/10 14:35:07;;;;;;;0.20;0.20;;;;;;;;;;6222226;23;20027;-92
2022/10/10 14:37:37;;;;;;;0.10;0.10;;;;;;;;;;6211781;23;20023;-91
2022/10/10 14:40:03;;;;;;;0.10;0.10;;;;;;;;;;6193424;23;20449;-89
2022/10/10 14:42:29;;;;;;;0.10;0.10;;;;;;;;;;6192849;23;20445;-89
2022/10/10 14:44:56;;;;;;;0.10;0.10;;;;;;;;;;6193179;23;20039;-90
2022/10/10 14:47:23;;;;;;;0.10;0.10;;;;;;;;;;6192972;23;20016;-90
2022/10/10 14:49:56;;;;;;;0.10;0.10;;;;;;;;;;6192902;23;20079;-88
2022/10/10 14:52:22;;;;;;;0.10;0.10;;;;;;;;;;6217519;23;20008;-92
2022/10/10 14:54:48;;;;;;;0.25;0.10;;;;;;;;;;6192759;23;20095;-89
2022/10/10 14:57:15;;;;;;;0.10;0.10;;;;;;;;;;6192577;23;20051;-90
2022/10/10 14:59:41;;;;;;;0.10;0.10;;;;;;;;;;6193057;23;20020;-90
2022/10/10 15:02:07;;;;;;;0.10;0.10;;;;;;;;;;6192514;23;20047;-89
2022/10/10 15:04:33;;;;;;;0.10;0.10;;;;;;;;;;6218017;23;20088;-91
2022/10/10 15:06:59;;;;;;;0.10;0.10;;;;;;;;;;6192865;23;20012;-91
2022/10/10 15:09:26;;;;;;;0.10;0.10;;;;;;;;;;6192774;23;20022;-90
2022/10/10 15:11:52;;;;;;;0.10;0.10;;;;;;;;;;6217313;23;20051;-84
2022/10/10 15:14:18;;;;;;;0.13;0.13;;;;;;;;;;6192677;23;20016;-87
2022/10/10 15:16:44;;;;;;;0.10;0.10;;;;;;;;;;6192627;23;20008;-85
2022/10/10 15:19:10;;;;;;;0.10;0.10;;;;;;;;;;6218053;23;20012;-86
2022/10/10 15:21:36;;;;;;;0.10;0.10;;;;;;;;;;6242666;22;20065;-85
2022/10/10 15:24:02;;;;;;;0.10;0.10;;;;;;;;;;6242795;23;20012;-87
2022/10/10 15:26:27;;;;;;;0.10;0.10;;;;;;;;;;6217655;23;20111;-86
2022/10/10 15:28:53;;;;;;;0.10;0.10;;;;;;;;;;6192477;23;20012;-87
2022/10/10 15:31:25;;;;;;;0.10;0.10;;;;;;;;;;6195259;23;20445;-87
2022/10/10 15:33:53;;;;;;;0.10;0.10;;;;;;;;;;6193410;23;20310;-86
2022/10/10 15:36:19;;;;;;;0.10;0.10;;;;;;;;;;6192568;23;20008;-87
2022/10/10 15:38:45;;;;;;;0.15;0.15;;;;;;;;;;6217589;23;20377;-88
2022/10/10 15:41:11;;;;;;;1.77;0.20;;;;;;;;;;6217494;23;20012;-87
2022/10/10 15:43:44;;;;;;;0.10;0.10;;;;;;;;;;6192847;23;20449;-88
2022/10/10 15:46:10;;;;;;;0.10;0.10;;;;;;;;;;6193000;23;20015;-87
2022/10/10 15:48:36;;;;;;;0.10;0.10;;;;;;;;;;6217621;23;20039;-87
2022/10/10 15:51:06;;;;;;;0.10;0.10;;;;;;;;;;6217075;23;20083;-87
2022/10/10 15:53:32;;;;;;;0.10;0.10;;;;;;;;;;6192584;23;20353;-87
2022/10/10 15:55:58;;;;;;;0.10;0.10;;;;;;;;;;6192474;23;20016;-88
2022/10/10 15:58:25;;;;;;;0.10;0.10;;;;;;;;;;6192727;23;20008;-88
2022/10/10 16:00:51;;;;;;;0.10;0.10;;;;;;;;;;6217901;23;20023;-87
2022/10/10 16:03:17;;;;;;;0.38;0.38;;;;;;;;;;6217467;23;20008;-87
2022/10/10 16:05:43;;;;;;;0.10;0.10;;;;;;;;;;6192484;23;20020;-89
2022/10/10 16:08:11;;;;;;;0.10;0.10;;;;;;;;;;6217746;23;20027;-88
2022/10/10 16:10:40;;;;;;;0.10;0.10;;;;;;;;;;6192741;22;20016;-86
2022/10/10 16:13:07;;;;;;;0.10;0.10;;;;;;;;;;6217880;23;20008;-86
2022/10/10 16:15:33;;;;;;;0.10;0.10;;;;;;;;;;6192537;23;20020;-87
2022/10/10 16:17:59;;;;;;;0.10;0.10;;;;;;;;;;6192673;23;20016;-87
2022/10/10 16:20:25;;;;;;;0.10;0.10;;;;;;;;;;6192564;22;20015;-86
2022/10/10 16:22:51;;;;;;;0.10;0.10;;;;;;;;;;6192714;23;20449;-87
2022/10/10 16:25:17;;;;;;;0.10;0.10;;;;;;;;;;6217559;23;20016;-86
2022/10/10 16:27:43;;;;;;;0.10;0.10;;;;;;;;;;6217757;23;20157;-87
2022/10/10 16:30:09;;;;;;;0.20;0.20;;;;;;;;;;6192575;23;20027;-87
2022/10/10 16:32:35;;;;;;;0.10;0.10;;;;;;;;;;6217764;23;20206;-88
2022/10/10 16:35:01;;;;;;;0.10;0.10;;;;;;;;;;6217390;23;20480;-87
2022/10/10 16:37:27;;;;;;;0.20;0.20;;;;;;;;;;6192463;23;20191;-87
2022/10/10 16:39:53;;;;;;;0.10;0.10;;;;;;;;;;6217100;23;20399;-88
2022/10/10 16:42:19;;;;;;;0.10;0.10;;;;;;;;;;6217239;23;20016;-87
2022/10/10 16:44:45;;;;;;;0.10;0.10;;;;;;;;;;6192506;23;20122;-88
2022/10/10 16:47:11;;;;;;;0.10;0.10;;;;;;;;;;6192722;23;20449;-89
2022/10/10 16:49:37;;;;;;;0.10;0.10;;;;;;;;;;6192711;23;20016;-87
2022/10/10 16:52:03;;;;;;;0.10;0.10;;;;;;;;;;6217155;23;20012;-88
2022/10/10 16:54:29;;;;;;;0.10;0.10;;;;;;;;;;6192568;23;20016;-88
2022/10/10 16:56:55;;;;;;;0.10;0.10;;;;;;;;;;6192201;23;20019;-86
2022/10/10 16:59:21;;;;;;;0.10;0.10;;;;;;;;;;6192371;23;20012;-86
2022/10/10 17:01:47;;;;;;;0.10;0.10;;;;;;;;;;6217433;23;20439;-85
2022/10/10 17:04:13;;;;;;;0.10;0.10;;;;;;;;;;6219371;23;20026;-86
2022/10/10 17:06:39;;;;;;;0.10;0.10;;;;;;;;;;6219224;23;20012;-86
2022/10/10 17:09:06;;;;;;;0.10;0.10;;;;;;;;;;6194114;23;20008;-86
2022/10/10 17:11:32;;;;;;;0.10;0.10;;;;;;;;;;6193931;23;20015;-86
2022/10/10 17:13:58;;;;;;;0.10;0.10;;;;;;;;;;6218948;23;20019;-86
2022/10/10 17:16:24;;;;;;;0.10;0.10;;;;;;;;;;6219037;23;20322;-85
2022/10/10 17:18:50;;;;;;;0.10;0.10;;;;;;;;;;6219013;23;20063;-85
2022/10/10 17:21:17;;;;;;;0.10;0.10;;;;;;;;;;6219091;23;20008;-85
2022/10/10 17:23:43;;;;;;;0.10;0.10;;;;;;;;;;6193964;23;20019;-86
2022/10/10 17:26:09;;;;;;;0.10;0.10;;;;;;;;;;6219338;23;20015;-86
2022/10/10 17:28:35;;;;;;;0.10;0.10;;;;;;;;;;6218879;23;20031;-86
2022/10/10 17:31:04;;;;;;;0.10;0.10;;;;;;;;;;6218860;23;20337;-87
2022/10/10 17:33:30;;;;;;;0.10;0.10;;;;;;;;;;6219043;23;20012;-87
2022/10/10 17:35:56;;;;;;;0.10;0.10;;;;;;;;;;6218765;23;20014;-86
2022/10/10 17:38:22;;;;;;;0.10;0.10;;;;;;;;;;6218674;23;20020;-87
2022/10/10 17:40:55;;;;;;;0.10;0.10;;;;;;;;;;6219033;23;20005;-87
2022/10/10 17:43:22;;;;;;;0.10;0.10;;;;;;;;;;6218908;23;20039;-88
2022/10/10 17:45:48;;;;;;;0.10;0.10;;;;;;;;;;6194058;23;20022;-88
2022/10/10 17:48:14;;;;;;;0.10;0.10;;;;;;;;;;6193873;23;20345;-88
2022/10/10 17:50:40;;;;;;;0.10;0.10;;;;;;;;;;6194031;22;20019;-89
2022/10/10 17:53:06;;;;;;;0.10;0.10;;;;;;;;;;6193784;23;20457;-88
2022/10/10 17:55:32;;;;;;;0.10;0.10;;;;;;;;;;6193794;23;20015;-87
2022/10/10 17:57:58;;;;;;;0.10;0.10;;;;;;;;;;6243921;23;20016;-87